Time;durP1;ratioP1;P1;durP2;ratioP2;P2;SDS_P1;SDS_P2;PMS_P1;PMS_P2;Temp;Humidity;BMP_temperature;BMP_pressure;BME280_temperature;BME280_humidity;BME280_pressure;Samples;Min_cycle;Max_cycle;Signal;HPM_P1;HPM_P2
2023/12/22 00:00:05;;;;;;;3.83;1.95;;;;;;;7.43;75.10;97287.88;5021656;27;103209;-69
2023/12/22 00:02:33;;;;;;;3.88;1.90;;;;;;;7.35;75.02;97285.31;5024638;27;102630;-68
2023/12/22 00:05:01;;;;;;;4.80;2.05;;;;;;;7.33;74.60;97287.31;5026914;27;105363;-69
2023/12/22 00:07:29;;;;;;;3.25;1.80;;;;;;;7.38;74.79;97272.59;5021722;27;103009;-69
2023/12/22 00:09:57;;;;;;;3.40;1.55;;;;;;;7.37;74.84;97278.84;5029251;27;104095;-69
2023/12/22 00:12:30;;;;;;;5.20;1.80;;;;;;;7.33;74.83;97279.41;5029274;27;103616;-69
2023/12/22 00:14:57;;;;;;;7.57;1.92;;;;;;;7.30;74.16;97272.69;5022107;27;104033;-70
2023/12/22 00:17:28;;;;;;;5.32;2.25;;;;;;;7.35;74.55;97254.53;5026051;27;103019;-70
2023/12/22 00:19:58;;;;;;;10.63;2.35;;;;;;;7.21;75.82;97269.34;5004990;27;104270;-70
2023/12/22 00:22:27;;;;;;;3.90;1.90;;;;;;;7.23;76.02;97266.50;5023607;27;102718;-69
2023/12/22 00:24:55;;;;;;;5.43;2.67;;;;;;;7.20;76.95;97259.78;5006193;27;102803;-69
2023/12/22 00:27:23;;;;;;;3.88;2.00;;;;;;;7.26;77.38;97281.97;5004734;27;104105;-69
2023/12/22 00:29:52;;;;;;;8.93;2.80;;;;;;;7.18;78.09;97279.41;5020568;27;103095;-69
2023/12/22 00:32:20;;;;;;;7.70;2.40;;;;;;;7.12;78.34;97313.34;5005090;27;102650;-69
2023/12/22 00:34:48;;;;;;;6.43;1.98;;;;;;;7.08;78.97;97330.50;5032044;27;102721;-69
2023/12/22 00:37:16;;;;;;;8.90;2.33;;;;;;;7.14;78.55;97337.69;5022438;27;103169;-69
2023/12/22 00:39:45;;;;;;;6.03;2.20;;;;;;;7.00;79.10;97343.75;5025550;27;103415;-70
2023/12/22 00:42:13;;;;;;;4.95;2.20;;;;;;;6.95;78.58;97343.47;5023731;27;102924;-70
2023/12/22 00:44:41;;;;;;;6.55;2.50;;;;;;;6.96;78.13;97337.22;5033346;27;102763;-69
2023/12/22 00:47:10;;;;;;;4.88;2.10;;;;;;;7.03;78.22;97335.50;5041327;27;104500;-69
2023/12/22 00:49:38;;;;;;;5.50;2.28;;;;;;;7.00;77.55;97358.75;5007763;27;104561;-69
2023/12/22 00:52:06;;;;;;;4.78;2.33;;;;;;;7.05;78.02;97370.38;5022523;27;102827;-70
2023/12/22 00:54:34;;;;;;;6.10;2.22;;;;;;;6.98;78.52;97385.22;5026906;27;102630;-70
2023/12/22 00:57:02;;;;;;;5.93;2.13;;;;;;;6.92;78.78;97383.31;5028391;27;103283;-69
2023/12/22 00:59:30;;;;;;;4.43;2.00;;;;;;;7.06;77.94;97372.00;5011174;27;102926;-69
2023/12/22 01:01:58;;;;;;;6.95;2.10;;;;;;;6.99;77.66;97359.75;5023094;27;104226;-69
2023/12/22 01:04:27;;;;;;;5.90;2.10;;;;;;;7.17;77.82;97369.94;5006312;27;104228;-69
2023/12/22 01:06:56;;;;;;;5.22;2.85;;;;;;;7.20;78.00;97357.22;5028444;27;103268;-69
2023/12/22 01:09:24;;;;;;;5.40;2.40;;;;;;;7.18;77.46;97358.41;5026161;27;103335;-69
2023/12/22 01:11:52;;;;;;;7.82;2.90;;;;;;;7.14;78.46;97348.22;5026608;27;102718;-69
2023/12/22 01:14:20;;;;;;;3.47;1.90;;;;;;;7.14;78.39;97350.88;5043309;27;102703;-69
2023/12/22 01:16:48;;;;;;;7.63;2.20;;;;;;;7.21;78.17;97337.78;5010953;27;104135;-69
2023/12/22 01:19:16;;;;;;;4.93;1.83;;;;;;;7.21;77.84;97327.25;5039796;27;103273;-70
2023/12/22 01:21:46;;;;;;;5.45;1.92;;;;;;;7.26;77.69;97313.56;5029313;27;102624;-69
2023/12/22 01:24:17;;;;;;;6.38;2.17;;;;;;;7.22;77.92;97330.69;5026023;27;103800;-69
2023/12/22 01:26:45;;;;;;;10.55;3.20;;;;;;;7.16;77.51;97326.19;5022669;27;104137;-70
2023/12/22 01:29:13;;;;;;;6.60;2.40;;;;;;;7.24;76.99;97321.63;5006805;27;104358;-69
2023/12/22 01:31:41;;;;;;;4.72;2.45;;;;;;;7.23;77.13;97321.81;5029880;27;103085;-69
2023/12/22 01:34:09;;;;;;;6.88;2.17;;;;;;;7.27;76.53;97316.00;5012271;27;103589;-69
2023/12/22 01:36:37;;;;;;;4.53;2.13;;;;;;;7.24;76.48;97326.09;5007677;27;103225;-70
2023/12/22 01:39:06;;;;;;;7.82;2.58;;;;;;;7.20;76.19;97332.72;5025530;27;103281;-70
2023/12/22 01:41:36;;;;;;;6.63;2.20;;;;;;;7.10;76.17;97343.50;5026729;27;102558;-69
2023/12/22 01:44:05;;;;;;;3.25;1.75;;;;;;;7.20;75.86;97335.34;5024045;27;102710;-69
2023/12/22 01:46:37;;;;;;;5.65;2.35;;;;;;;7.18;74.87;97334.69;5024735;27;103904;-69
2023/12/22 01:49:06;;;;;;;4.03;2.03;;;;;;;7.16;74.79;97341.97;5025882;27;103151;-70
2023/12/22 01:51:39;;;;;;;6.43;2.25;;;;;;;7.11;74.05;97348.59;5020936;27;102881;-69
2023/12/22 01:54:13;;;;;;;4.40;2.00;;;;;;;7.12;73.48;97344.13;5037925;27;104246;-70
2023/12/22 01:56:41;;;;;;;4.43;1.80;;;;;;;7.07;72.76;97351.75;5029038;27;104056;-69
2023/12/22 01:59:10;;;;;;;3.67;1.58;;;;;;;7.04;72.38;97349.50;5008606;27;102611;-70
2023/12/22 02:01:39;;;;;;;3.13;1.63;;;;;;;7.06;72.05;97356.22;5024710;27;102627;-70
2023/12/22 02:04:07;;;;;;;10.10;2.00;;;;;;;7.13;71.41;97358.94;5005688;27;104425;-70
2023/12/22 02:06:37;;;;;;;3.28;1.75;;;;;;;7.02;70.82;97351.47;5016642;27;103181;-70
2023/12/22 02:09:05;;;;;;;4.70;1.45;;;;;;;6.91;70.50;97342.19;5039320;27;104167;-70
2023/12/22 02:11:39;;;;;;;2.90;1.58;;;;;;;7.02;71.28;97357.56;5031776;27;102600;-70
2023/12/22 02:14:08;;;;;;;5.53;1.70;;;;;;;6.97;71.10;97355.47;5005434;27;104939;-70
2023/12/22 02:16:43;;;;;;;4.25;1.70;;;;;;;6.97;71.17;97344.13;5012666;27;103363;-70
2023/12/22 02:19:23;;;;;;;3.67;1.63;;;;;;;6.94;70.97;97352.38;5028208;27;103227;-70
2023/12/22 02:22:04;;;;;;;2.60;1.50;;;;;;;6.81;70.78;97379.28;5025025;27;103468;-70
2023/12/22 02:24:38;;;;;;;3.17;1.27;;;;;;;6.89;71.40;97371.34;5023142;27;102834;-70
2023/12/22 02:27:15;;;;;;;2.75;1.38;;;;;;;6.80;71.69;97367.94;5006874;27;103218;-70
2023/12/22 02:29:49;;;;;;;8.02;2.10;;;;;;;6.84;71.32;97371.03;5029596;27;103692;-70
2023/12/22 02:32:23;;;;;;;4.03;1.58;;;;;;;6.84;70.98;97364.94;5007406;27;103024;-70
2023/12/22 02:34:54;;;;;;;2.97;1.65;;;;;;;6.84;71.42;97372.84;5023941;27;102722;-70
2023/12/22 02:37:24;;;;;;;5.93;1.67;;;;;;;6.86;70.88;97376.13;5006407;27;104319;-70
2023/12/22 02:39:54;;;;;;;3.90;1.77;;;;;;;6.83;71.28;97373.84;5026431;27;103188;-70
2023/12/22 02:42:29;;;;;;;3.67;1.67;;;;;;;6.80;71.33;97375.03;5036083;27;102948;-70
2023/12/22 02:44:58;;;;;;;6.03;2.08;;;;;;;6.82;71.85;97377.47;5020431;27;103803;-70
2023/12/22 02:47:27;;;;;;;4.65;1.92;;;;;;;6.72;71.31;97354.84;5025646;27;103269;-69
2023/12/22 02:49:56;;;;;;;6.85;2.53;;;;;;;6.75;71.05;97357.13;5026574;27;102965;-70
2023/12/22 02:52:24;;;;;;;5.72;1.80;;;;;;;6.89;70.92;97359.97;5023306;27;103770;-69
2023/12/22 02:54:54;;;;;;;6.65;2.58;;;;;;;6.87;70.96;97373.31;5018591;27;104057;-70
2023/12/22 02:57:22;;;;;;;4.38;1.80;;;;;;;6.84;71.37;97363.16;5021996;27;104960;-70
2023/12/22 02:59:50;;;;;;;5.03;2.17;;;;;;;6.80;71.44;97346.88;5025593;27;103283;-70
2023/12/22 03:02:18;;;;;;;5.78;1.90;;;;;;;6.86;71.11;97355.06;5023845;27;102677;-69
2023/12/22 03:04:47;;;;;;;5.03;1.80;;;;;;;6.82;71.21;97343.25;5002947;27;104064;-70
2023/12/22 03:07:15;;;;;;;4.82;1.85;;;;;;;6.86;70.65;97331.38;5022055;27;103773;-69
2023/12/22 03:09:46;;;;;;;7.47;2.17;;;;;;;6.83;71.00;97358.06;5025916;27;104860;-69
2023/12/22 03:12:15;;;;;;;9.02;2.55;;;;;;;6.85;70.66;97353.44;5025805;27;102632;-69
2023/12/22 03:14:43;;;;;;;6.35;2.20;;;;;;;6.88;70.75;97338.09;5021883;27;103638;-69
2023/12/22 03:17:12;;;;;;;4.78;1.83;;;;;;;6.94;70.49;97328.66;5019914;27;103719;-69
2023/12/22 03:19:42;;;;;;;4.93;2.33;;;;;;;6.94;70.05;97336.56;5002959;27;104181;-69
2023/12/22 03:22:10;;;;;;;6.53;2.17;;;;;;;6.95;70.30;97343.47;5027191;27;102798;-69
2023/12/22 03:24:38;;;;;;;6.25;2.47;;;;;;;6.99;68.77;97354.47;5022133;27;102691;-69
2023/12/22 03:27:06;;;;;;;6.88;2.47;;;;;;;7.06;68.85;97352.75;5007581;27;103192;-70
2023/12/22 03:29:36;;;;;;;4.85;2.10;;;;;;;7.02;67.52;97333.88;5006150;27;103222;-70
2023/12/22 03:32:05;;;;;;;7.75;2.00;;;;;;;7.04;67.79;97336.31;5020545;27;103740;-69
2023/12/22 03:34:33;;;;;;;5.32;1.92;;;;;;;7.07;67.86;97347.28;5020433;27;102680;-69
2023/12/22 03:37:01;;;;;;;6.05;2.40;;;;;;;7.08;68.23;97348.94;5039014;27;104111;-69
2023/12/22 03:39:29;;;;;;;6.82;2.13;;;;;;;7.13;67.76;97382.66;5029812;27;103461;-69
2023/12/22 03:42:00;;;;;;;6.05;2.28;;;;;;;7.02;67.66;97362.00;5019819;27;102596;-69
2023/12/22 03:44:28;;;;;;;8.02;2.33;;;;;;;7.10;67.66;97378.56;5005479;27;103063;-69
2023/12/22 03:46:57;;;;;;;5.90;1.92;;;;;;;7.10;68.39;97373.28;5020705;27;104193;-69
2023/12/22 03:49:25;;;;;;;5.40;2.15;;;;;;;7.07;68.18;97381.53;5026178;27;103298;-69
2023/12/22 03:51:53;;;;;;;6.03;2.10;;;;;;;7.17;67.97;97394.44;5019075;27;102559;-69
2023/12/22 03:54:21;;;;;;;4.95;2.20;;;;;;;7.14;68.47;97374.56;5004725;27;102720;-68
2023/12/22 03:56:49;;;;;;;4.78;2.03;;;;;;;7.16;68.02;97390.19;5024010;27;103204;-69
2023/12/22 03:59:19;;;;;;;5.57;2.25;;;;;;;7.08;68.68;97391.06;5003375;27;104519;-69
2023/12/22 04:01:53;;;;;;;3.78;1.90;;;;;;;7.04;71.21;97405.59;5006047;27;102614;-69
2023/12/22 04:04:23;;;;;;;5.13;2.30;;;;;;;6.95;72.68;97404.00;5021914;27;103119;-69
2023/12/22 04:06:51;;;;;;;3.85;1.90;;;;;;;6.58;75.00;97422.19;5004331;27;103438;-70
2023/12/22 04:09:19;;;;;;;5.97;2.00;;;;;;;6.42;75.91;97411.75;5021168;27;103181;-71
2023/12/22 04:11:47;;;;;;;5.32;2.05;;;;;;;6.30;76.99;97408.69;5019684;27;102605;-70
2023/12/22 04:14:16;;;;;;;4.93;2.28;;;;;;;6.49;77.04;97409.28;5020316;27;104074;-70
2023/12/22 04:16:44;;;;;;;8.50;2.42;;;;;;;6.41;78.09;97405.69;5020866;27;103197;-70
2023/12/22 04:19:12;;;;;;;5.80;2.83;;;;;;;6.24;78.26;97397.06;5016945;27;103871;-70
2023/12/22 04:21:42;;;;;;;7.88;2.45;;;;;;;6.30;78.54;97390.28;5024711;27;103024;-72
2023/12/22 04:24:10;;;;;;;6.10;2.10;;;;;;;6.28;77.92;97384.41;5030413;27;104410;-71
2023/12/22 04:26:38;;;;;;;5.63;2.20;;;;;;;6.21;78.29;97371.13;5020919;27;103203;-71
2023/12/22 04:29:06;;;;;;;6.45;2.38;;;;;;;6.16;78.09;97370.00;5005367;27;104351;-70
2023/12/22 04:31:34;;;;;;;5.55;2.08;;;;;;;6.19;77.07;97367.03;5006322;27;103446;-70
2023/12/22 04:34:02;;;;;;;6.63;2.75;;;;;;;6.26;76.81;97375.88;5022695;27;102884;-71
2023/12/22 04:36:30;;;;;;;7.20;2.30;;;;;;;6.32;76.43;97358.59;5009168;27;104260;-71
2023/12/22 04:38:59;;;;;;;8.70;2.88;;;;;;;6.32;74.95;97380.44;5023948;27;103043;-72
2023/12/22 04:41:27;;;;;;;5.80;2.30;;;;;;;6.34;75.05;97383.72;5028240;27;103033;-71
2023/12/22 04:43:55;;;;;;;4.65;2.00;;;;;;;6.32;75.16;97390.16;5020185;27;103903;-71
2023/12/22 04:46:24;;;;;;;6.30;2.30;;;;;;;6.44;74.44;97412.41;5022160;27;103210;-71
2023/12/22 04:48:52;;;;;;;4.50;2.42;;;;;;;6.50;74.45;97424.03;5025470;27;103412;-71
2023/12/22 04:51:20;;;;;;;6.10;2.35;;;;;;;6.43;73.83;97414.25;5021356;27;102621;-71
2023/12/22 04:53:49;;;;;;;6.97;2.75;;;;;;;6.49;74.29;97422.44;5004754;27;104634;-71
2023/12/22 04:56:18;;;;;;;6.57;2.42;;;;;;;6.51;74.38;97415.16;5007934;27;104137;-72
2023/12/22 04:58:46;;;;;;;6.63;2.30;;;;;;;6.44;74.53;97410.59;5022206;27;103210;-65
2023/12/22 05:01:14;;;;;;;5.70;2.42;;;;;;;6.51;74.06;97420.44;5020098;27;103089;-69
2023/12/22 05:03:43;;;;;;;5.65;2.17;;;;;;;6.52;72.83;97422.88;5018992;27;102822;-69
2023/12/22 05:06:11;;;;;;;4.68;2.10;;;;;;;6.57;72.84;97425.00;5018079;27;103413;-69
2023/12/22 05:08:39;;;;;;;6.93;2.42;;;;;;;6.49;73.58;97438.22;5006573;27;103342;-69
2023/12/22 05:11:07;;;;;;;6.63;2.22;;;;;;;6.59;72.63;97439.63;5003603;27;102605;-70
2023/12/22 05:13:38;;;;;;;6.80;2.40;;;;;;;6.60;73.12;97451.78;5007353;27;102663;-69
2023/12/22 05:16:06;;;;;;;7.75;2.63;;;;;;;6.63;73.40;97454.06;5004283;27;103465;-69
2023/12/22 05:18:35;;;;;;;5.00;1.95;;;;;;;6.63;73.00;97451.44;5024802;27;103276;-70
2023/12/22 05:21:03;;;;;;;9.85;3.03;;;;;;;6.63;73.05;97453.25;5007950;27;103050;-70
2023/12/22 05:23:32;;;;;;;8.88;2.58;;;;;;;6.62;73.31;97456.88;5027681;27;102655;-70
2023/12/22 05:26:00;;;;;;;7.18;2.70;;;;;;;6.62;72.92;97459.50;5007201;27;104232;-69
2023/12/22 05:28:28;;;;;;;5.93;2.67;;;;;;;6.59;73.77;97450.16;5027548;27;103296;-69
2023/12/22 05:31:00;;;;;;;9.73;2.97;;;;;;;6.63;72.95;97467.22;5029740;27;102983;-69
2023/12/22 05:33:29;;;;;;;12.75;3.65;;;;;;;6.59;72.64;97446.69;5024197;27;104126;-69
2023/12/22 05:35:56;;;;;;;11.80;3.33;;;;;;;6.66;72.81;97452.91;5026489;27;103310;-69
2023/12/22 05:38:25;;;;;;;8.50;3.35;;;;;;;6.62;73.08;97460.31;5004641;27;104174;-69
2023/12/22 05:40:53;;;;;;;6.28;2.70;;;;;;;6.67;73.75;97457.19;5005059;27;102773;-69
2023/12/22 05:43:21;;;;;;;8.23;2.90;;;;;;;6.63;73.60;97461.16;5002342;27;104045;-69
2023/12/22 05:45:49;;;;;;;7.72;3.45;;;;;;;6.63;74.23;97455.88;5002668;27;103295;-69
2023/12/22 05:48:21;;;;;;;11.27;3.45;;;;;;;6.61;74.27;97461.31;5023333;27;103211;-70
2023/12/22 05:50:52;;;;;;;11.88;3.25;;;;;;;6.66;73.12;97463.44;5006823;27;103029;-70
2023/12/22 05:53:22;;;;;;;9.98;3.30;;;;;;;6.65;72.61;97456.53;5006863;27;102745;-70
2023/12/22 05:55:52;;;;;;;7.80;3.17;;;;;;;6.72;72.76;97454.00;5007512;27;104164;-70
2023/12/22 05:58:20;;;;;;;12.00;3.30;;;;;;;6.69;71.89;97455.19;5008407;27;104171;-69
2023/12/22 06:00:48;;;;;;;9.95;2.85;;;;;;;6.74;71.60;97458.09;5011866;27;103243;-70
2023/12/22 06:03:18;;;;;;;11.60;3.33;;;;;;;6.79;71.03;97470.75;5009554;27;102736;-70
2023/12/22 06:05:47;;;;;;;5.47;3.15;;;;;;;6.87;70.68;97472.53;5020502;27;103391;-70
2023/12/22 06:08:17;;;;;;;9.45;2.92;;;;;;;6.81;69.31;97468.75;5030115;27;103196;-70
2023/12/22 06:10:45;;;;;;;11.80;3.35;;;;;;;6.87;70.04;97493.56;5009079;27;102739;-71
2023/12/22 06:13:14;;;;;;;13.88;3.53;;;;;;;6.94;69.71;97505.03;5008187;27;102831;-70
2023/12/22 06:15:42;;;;;;;7.18;2.90;;;;;;;6.94;69.12;97505.03;5023021;27;103628;-70
2023/12/22 06:18:11;;;;;;;9.77;3.35;;;;;;;6.99;69.17;97505.34;5029549;27;103179;-70
2023/12/22 06:20:40;;;;;;;10.48;3.25;;;;;;;7.04;69.61;97510.09;5029317;27;102570;-69
2023/12/22 06:23:09;;;;;;;9.77;3.15;;;;;;;7.02;69.77;97507.63;5008832;27;103755;-69
2023/12/22 06:25:37;;;;;;;7.65;2.63;;;;;;;7.01;69.15;97510.41;5009528;27;104422;-69
2023/12/22 06:28:05;;;;;;;10.65;3.38;;;;;;;7.02;69.85;97512.91;5007249;27;103235;-69
2023/12/22 06:30:34;;;;;;;8.52;3.00;;;;;;;7.03;68.91;97542.66;5023350;27;102715;-69
2023/12/22 06:33:01;;;;;;;7.65;2.55;;;;;;;7.06;70.00;97566.00;5024015;27;103054;-70
2023/12/22 06:35:29;;;;;;;8.18;3.00;;;;;;;7.02;68.83;97551.56;5027762;27;103206;-70
2023/12/22 06:38:03;;;;;;;10.10;2.80;;;;;;;7.01;69.58;97542.84;5017906;27;103165;-69
2023/12/22 06:40:32;;;;;;;9.40;3.00;;;;;;;7.01;68.65;97537.56;5022727;27;103214;-69
2023/12/22 06:43:00;;;;;;;8.70;2.70;;;;;;;6.97;68.79;97541.56;5005357;27;102899;-69
2023/12/22 06:45:28;;;;;;;8.07;3.03;;;;;;;7.08;69.20;97542.97;5022238;27;104558;-70
2023/12/22 06:47:56;;;;;;;7.50;2.67;;;;;;;7.06;69.23;97550.22;5002158;27;102794;-69
2023/12/22 06:50:24;;;;;;;11.75;3.40;;;;;;;7.07;68.97;97563.19;5026577;27;104677;-69
2023/12/22 06:52:52;;;;;;;5.47;2.13;;;;;;;7.10;69.15;97560.22;5026362;27;102725;-69
2023/12/22 06:55:22;;;;;;;8.75;2.70;;;;;;;7.10;69.14;97562.88;5010674;27;102943;-69
2023/12/22 06:57:50;;;;;;;8.82;2.72;;;;;;;7.07;68.79;97573.72;5004453;27;103209;-70
2023/12/22 07:00:19;;;;;;;7.50;2.75;;;;;;;7.06;68.58;97577.38;5005700;27;102935;-70
2023/12/22 07:02:47;;;;;;;10.27;2.97;;;;;;;7.08;68.84;97575.38;5024960;27;103213;-70
2023/12/22 07:05:36;;;;;;;8.38;2.72;;;;;;;7.09;68.33;97577.00;5020861;27;103547;-69
2023/12/22 07:08:06;;;;;;;5.38;2.40;;;;;;;7.14;69.25;97595.75;5004100;27;104353;-70
2023/12/22 07:10:36;;;;;;;8.40;2.65;;;;;;;7.09;69.50;97605.16;5005543;27;102764;-69
2023/12/22 07:13:04;;;;;;;7.20;2.65;;;;;;;7.08;68.89;97596.44;5025196;27;102770;-69
2023/12/22 07:15:33;;;;;;;8.68;2.50;;;;;;;7.13;69.19;97599.38;5004816;27;103809;-69
2023/12/22 07:18:02;;;;;;;6.93;3.38;;;;;;;7.14;69.82;97601.00;5004646;27;103277;-70
2023/12/22 07:20:32;;;;;;;7.35;3.28;;;;;;;7.00;70.39;97603.56;4997426;27;102769;-69
2023/12/22 07:23:00;;;;;;;9.23;3.05;;;;;;;7.07;69.83;97600.06;5025605;27;104171;-70
2023/12/22 07:25:28;;;;;;;8.48;2.92;;;;;;;7.01;70.19;97600.75;5003761;27;104199;-70
2023/12/22 07:27:59;;;;;;;7.32;2.70;;;;;;;7.05;70.02;97602.06;5023802;27;103442;-69
2023/12/22 07:30:27;;;;;;;7.60;2.80;;;;;;;7.07;70.64;97615.84;5020470;27;102595;-70
2023/12/22 07:32:56;;;;;;;9.48;2.63;;;;;;;7.04;71.21;97626.72;4999528;27;102637;-70
2023/12/22 07:35:24;;;;;;;8.07;3.05;;;;;;;7.03;70.52;97606.66;5026253;27;104019;-69
2023/12/22 07:37:52;;;;;;;15.38;3.58;;;;;;;7.05;70.41;97612.59;5007528;27;104395;-69
2023/12/22 07:40:23;;;;;;;7.20;2.85;;;;;;;7.08;70.34;97611.41;5021992;27;102940;-69
2023/12/22 07:42:51;;;;;;;7.43;2.70;;;;;;;7.05;70.30;97602.06;5003076;27;104136;-74
2023/12/22 07:45:23;;;;;;;4.20;2.38;;;;;;;7.08;70.46;97617.50;5023495;27;104647;-74
2023/12/22 07:47:55;;;;;;;11.38;2.92;;;;;;;7.13;70.16;97617.81;5022191;27;103437;-70
2023/12/22 07:50:24;;;;;;;6.47;2.42;;;;;;;7.09;70.18;97616.50;5015010;27;102705;-70
2023/12/22 07:52:52;;;;;;;9.63;2.80;;;;;;;7.11;70.37;97611.91;5030918;27;103198;-70
2023/12/22 07:55:21;;;;;;;10.05;2.63;;;;;;;7.18;70.74;97611.19;5028083;27;103207;-69
2023/12/22 07:57:55;;;;;;;7.15;3.17;;;;;;;7.20;70.34;97619.75;5021421;27;104213;-68
2023/12/22 08:00:30;;;;;;;5.57;2.22;;;;;;;7.11;72.12;97622.44;5008902;27;102714;-69
2023/12/22 08:03:02;;;;;;;6.97;2.85;;;;;;;7.06;72.90;97619.50;5008341;27;103604;-69
2023/12/22 08:05:33;;;;;;;6.65;2.83;;;;;;;7.02;73.33;97610.31;5007442;27;104169;-69
2023/12/22 08:08:01;;;;;;;5.90;2.08;;;;;;;6.88;74.50;97617.09;5004898;27;104364;-68
2023/12/22 08:10:31;;;;;;;4.07;1.65;;;;;;;6.88;74.90;97622.38;5021032;27;103204;-68
2023/12/22 08:13:00;;;;;;;9.52;2.47;;;;;;;6.74;76.07;97631.78;5029235;27;103299;-69
2023/12/22 08:15:32;;;;;;;6.05;2.33;;;;;;;6.78;76.00;97648.88;5022936;27;103122;-70
2023/12/22 08:18:05;;;;;;;7.65;2.97;;;;;;;6.73;76.92;97640.66;5009213;27;104220;-67
2023/12/22 08:20:33;;;;;;;7.78;3.22;;;;;;;6.74;77.69;97641.50;5026758;27;102658;-68
2023/12/22 08:23:07;;;;;;;7.97;2.45;;;;;;;6.79;77.35;97634.72;5010059;27;103755;-68
2023/12/22 08:25:41;;;;;;;9.30;3.13;;;;;;;6.71;77.98;97640.03;5021275;27;104163;-68
2023/12/22 08:28:12;;;;;;;5.95;2.63;;;;;;;6.72;77.82;97636.41;5020765;27;103090;-70
2023/12/22 08:30:42;;;;;;;10.55;3.35;;;;;;;6.75;77.85;97638.69;5024433;27;103047;-69
2023/12/22 08:33:13;;;;;;;14.68;3.30;;;;;;;6.64;78.89;97628.53;5028299;27;102880;-70
2023/12/22 08:35:42;;;;;;;8.52;3.50;;;;;;;6.60;78.48;97630.69;5008199;27;104544;-70
2023/12/22 08:38:13;;;;;;;10.75;3.65;;;;;;;6.69;78.58;97643.81;5025769;27;102961;-70
2023/12/22 08:40:41;;;;;;;7.65;2.92;;;;;;;6.62;79.42;97647.13;5039679;27;102704;-70
2023/12/22 08:43:10;;;;;;;9.48;3.28;;;;;;;6.71;78.77;97632.13;5009794;27;104303;-70
2023/12/22 08:45:38;;;;;;;11.00;4.85;;;;;;;6.59;79.21;97618.53;5023200;27;102685;-71
2023/12/22 08:48:08;;;;;;;11.50;3.85;;;;;;;6.44;79.53;97613.13;5022405;27;103195;-69
2023/12/22 08:50:37;;;;;;;10.35;4.28;;;;;;;6.62;79.03;97622.63;5030130;27;102733;-70
2023/12/22 08:53:05;;;;;;;12.63;4.05;;;;;;;6.62;78.19;97622.63;5024825;27;104081;-70
2023/12/22 08:55:34;;;;;;;17.23;4.78;;;;;;;6.65;78.46;97606.50;5004684;27;103928;-71
2023/12/22 08:58:04;;;;;;;13.05;4.35;;;;;;;6.71;77.41;97605.81;5009201;27;102973;-70
2023/12/22 09:00:33;;;;;;;12.07;3.63;;;;;;;6.80;76.89;97615.31;5008248;27;103016;-70
2023/12/22 09:03:02;;;;;;;12.90;3.92;;;;;;;6.84;77.01;97630.75;5029822;27;104380;-71
2023/12/22 09:05:32;;;;;;;14.45;3.72;;;;;;;6.76;76.58;97619.28;5010178;27;104251;-70
2023/12/22 09:08:04;;;;;;;14.48;5.07;;;;;;;6.80;76.34;97622.41;5028324;27;103227;-71
2023/12/22 09:10:35;;;;;;;16.17;4.80;;;;;;;6.78;75.08;97632.28;5010781;27;102701;-71
2023/12/22 09:13:43;;;;;;;11.88;3.78;;;;;;;6.83;75.58;97600.19;5024576;27;102909;-70
2023/12/22 09:17:24;;;;;;;12.68;4.38;;;;;;;6.95;74.34;97638.28;5019113;27;104167;-71
2023/12/22 09:20:03;;;;;;;16.38;4.10;;;;;;;6.93;74.00;97635.00;5012276;27;103112;-70
2023/12/22 09:22:33;;;;;;;14.70;4.40;;;;;;;6.99;74.33;97631.69;5026646;27;103029;-71
2023/12/22 09:25:27;;;;;;;13.65;4.38;;;;;;;7.02;72.51;97627.91;5026489;27;103513;-71
2023/12/22 09:28:44;;;;;;;14.65;4.07;;;;;;;7.03;72.57;97646.16;4971184;22;103094;-69
2023/12/22 09:31:13;;;;;;;11.57;3.85;;;;;;;6.99;73.21;97646.69;4938735;27;103312;-68
2023/12/22 09:33:44;;;;;;;16.65;4.55;;;;;;;7.04;72.33;97655.69;4941189;27;102618;-69
2023/12/22 09:36:12;;;;;;;12.32;4.20;;;;;;;7.00;72.39;97657.03;4928949;28;104139;-70
2023/12/22 09:43:01;;;;;;;17.00;5.28;;;;;;;7.05;70.69;97665.25;4958896;27;103099;-69
2023/12/22 09:45:46;;;;;;;11.57;3.83;;;;;;;7.18;70.98;97671.75;4931733;27;102679;-71
2023/12/22 09:48:17;;;;;;;10.43;3.28;;;;;;;7.23;70.79;97674.69;4945788;27;103306;-70
2023/12/22 09:50:45;;;;;;;13.02;3.88;;;;;;;7.21;70.21;97669.59;4942838;28;103272;-70
2023/12/22 09:53:15;;;;;;;16.88;4.85;;;;;;;7.23;70.85;97669.44;4942042;27;103318;-71
2023/12/22 09:55:46;;;;;;;12.40;4.18;;;;;;;7.27;70.12;97662.81;4938672;27;103008;-71
2023/12/22 09:58:17;;;;;;;16.90;4.65;;;;;;;7.30;70.69;97673.03;4929704;28;103096;-71
2023/12/22 10:00:46;;;;;;;14.35;4.25;;;;;;;7.32;69.83;97671.03;4944577;27;102716;-69
2023/12/22 10:03:17;;;;;;;8.68;3.80;;;;;;;7.34;69.54;97676.97;4942929;27;103261;-70
2023/12/22 10:05:46;;;;;;;12.70;4.32;;;;;;;7.36;69.49;97661.78;4946653;27;103065;-73
2023/12/22 10:08:16;;;;;;;10.65;4.45;;;;;;;7.43;69.46;97651.41;4940369;27;104148;-68
2023/12/22 10:10:48;;;;;;;10.73;3.75;;;;;;;7.40;69.76;97655.19;4928931;27;104163;-68
2023/12/22 10:13:17;;;;;;;16.27;4.63;;;;;;;7.40;69.53;97642.03;4963257;27;102876;-74
2023/12/22 10:15:47;;;;;;;12.40;4.25;;;;;;;7.43;69.59;97636.41;4946309;27;102666;-74
2023/12/22 10:18:16;;;;;;;13.48;3.95;;;;;;;7.53;69.92;97622.19;4948383;28;102954;-74
2023/12/22 10:20:46;;;;;;;11.85;4.50;;;;;;;7.53;68.13;97624.81;4950835;27;102891;-75
2023/12/22 10:23:15;;;;;;;11.93;4.05;;;;;;;7.55;69.06;97612.31;4949344;28;103869;-74
2023/12/22 10:25:43;;;;;;;13.20;3.97;;;;;;;7.55;68.08;97622.84;4947530;27;103084;-73
2023/12/22 10:28:15;;;;;;;14.25;3.80;;;;;;;7.63;67.81;97615.69;4950798;27;102672;-74
2023/12/22 10:30:48;;;;;;;13.27;4.20;;;;;;;7.64;68.34;97603.34;4950003;27;103217;-74
2023/12/22 10:33:16;;;;;;;14.75;4.20;;;;;;;7.66;67.61;97598.69;4952129;27;103244;-75
2023/12/22 10:35:45;;;;;;;11.05;4.05;;;;;;;7.65;68.04;97597.06;4921599;27;102805;-74
2023/12/22 10:38:13;;;;;;;16.77;5.15;;;;;;;7.61;67.69;97591.34;4939158;27;102703;-76
2023/12/22 10:40:42;;;;;;;12.48;3.65;;;;;;;7.72;68.59;97603.25;4934042;28;103877;-74
2023/12/22 10:43:10;;;;;;;11.00;3.13;;;;;;;7.75;68.65;97581.00;4954164;28;103197;-75
2023/12/22 10:45:39;;;;;;;12.60;3.67;;;;;;;7.74;68.59;97590.75;4931089;28;102701;-74
2023/12/22 10:48:09;;;;;;;10.70;3.70;;;;;;;7.83;68.85;97567.75;4954009;28;103791;-74
2023/12/22 10:50:40;;;;;;;15.85;4.70;;;;;;;7.83;69.43;97564.31;4936765;27;103291;-73
2023/12/22 10:53:11;;;;;;;9.35;3.80;;;;;;;7.79;68.86;97562.03;4960314;27;102571;-75
2023/12/22 10:55:47;;;;;;;11.27;3.00;;;;;;;7.73;69.38;97562.75;4930336;28;102600;-74
2023/12/22 10:58:15;;;;;;;9.23;3.38;;;;;;;7.84;70.16;97564.13;4949288;28;103847;-74
2023/12/22 11:00:46;;;;;;;8.52;3.17;;;;;;;7.91;69.44;97566.84;4952110;28;103396;-75
2023/12/22 11:03:18;;;;;;;13.70;3.35;;;;;;;7.94;69.80;97569.16;4954159;27;103281;-73
2023/12/22 11:05:49;;;;;;;8.05;2.90;;;;;;;7.85;70.27;97571.03;4932443;28;102649;-74
2023/12/22 11:08:20;;;;;;;8.70;2.72;;;;;;;7.90;70.78;97568.69;4952064;28;102590;-73
2023/12/22 11:10:55;;;;;;;10.38;2.75;;;;;;;7.85;71.32;97564.94;4950909;27;104263;-75
2023/12/22 11:13:24;;;;;;;9.23;2.60;;;;;;;7.87;71.62;97557.69;4953703;27;103146;-74
2023/12/22 11:15:54;;;;;;;4.57;2.22;;;;;;;7.85;71.17;97554.38;4942688;28;103067;-74
2023/12/22 11:18:25;;;;;;;7.15;2.67;;;;;;;7.84;71.74;97563.31;4950166;27;104521;-74
2023/12/22 11:20:55;;;;;;;5.88;2.30;;;;;;;7.77;72.13;97555.31;4930105;28;104235;-74
2023/12/22 11:23:24;;;;;;;7.90;3.00;;;;;;;7.86;72.69;97548.13;4945838;27;102700;-75
2023/12/22 11:25:54;;;;;;;7.55;2.35;;;;;;;7.71;73.14;97548.91;4946682;27;103019;-73
2023/12/22 11:28:24;;;;;;;5.55;2.08;;;;;;;7.66;73.45;97532.00;4951659;27;103990;-73
2023/12/22 11:30:55;;;;;;;6.50;2.58;;;;;;;7.70;73.73;97531.44;4953034;27;104262;-73
2023/12/22 11:33:30;;;;;;;8.23;2.10;;;;;;;7.69;74.34;97531.63;4944392;27;103301;-74
2023/12/22 11:36:00;;;;;;;7.30;2.40;;;;;;;7.69;73.82;97524.56;4950191;27;102610;-74
2023/12/22 11:38:28;;;;;;;5.63;2.40;;;;;;;7.68;74.17;97528.19;4944982;28;103907;-73
2023/12/22 11:40:56;;;;;;;6.38;2.50;;;;;;;7.75;74.32;97515.91;4936195;27;103449;-74
2023/12/22 11:43:25;;;;;;;9.88;2.38;;;;;;;7.62;74.02;97524.47;4940914;27;103042;-73
2023/12/22 11:45:53;;;;;;;5.55;2.00;;;;;;;7.63;74.50;97517.38;4944726;28;102968;-69
2023/12/22 11:48:21;;;;;;;4.03;2.20;;;;;;;7.56;73.69;97519.91;4921049;28;103938;-69